Astor — C6JR3 — position and weather

sailwx.info

Track history (hours):
 
Tides and Currents Weather Stations Pressure Air Temp Water Temp Dewpoint Dewpoint Depression Visibility Wind Speed Wind Dir Waves Ship Positions

Astor

Operator: Passat Ship Management Ltd

Last reported at 2017-Dec-01 05:41 UTC. Time now 2017-Dec-13 03:38 UTC.
Position S 38°32' E 148°32'.
Warning: this ship's position is 11 days out of date.

Length 177 m; draft 6.2 m.

Type: Ship. MMSI: 308214000.

Date/timePositionNaut miles runAvg speedWind from/ knotsBaromVisibWave heightAir tempDewpointWater temp
2017-Dec-01 05:41S 38°32' E 148°32'316.2
2017-Dec-01 05:29S 38°30' E 148°35'816.0
2017-Dec-01 05:00S 38°25' E 148°43'815.6
2017-Dec-01 04:30S 38°20' E 148°51'714.9
2017-Dec-01 04:00S 38°16' E 148°59'714.8
2017-Dec-01 03:30S 38°12' E 149°06'914.1
2017-Dec-01 02:51S 38°06' E 149°16'711.0
2017-Dec-01 02:12S 38°02' E 149°23'314.6
2017-Dec-01 01:59S 38°00' E 149°26'266 8.5
2017-Nov-29 18:52S 33°52' E 151°24'510.0
2017-Nov-29 18:23S 33°54' E 151°29'3 8.7
2017-Nov-29 18:00S 33°54' E 151°33'2 3.6
2017-Nov-29 17:29S 33°53' E 151°36'  
2017-Nov-26 07:24S 36°21' E 174°58'411.0
2017-Nov-26 07:00S 36°25' E 174°59'611.2
2017-Nov-26 06:27S 36°31' E 174°59'510.9
2017-Nov-26 06:00S 36°36' E 174°58'710.9
2017-Nov-26 05:21S 36°42' E 174°53'411.5
2017-Nov-26 04:58S 36°45' E 174°50'6 7.8
2017-Nov-26 04:14S 36°50' E 174°46'0 0.0
2017-Nov-25 18:09S 36°50' E 174°46'0 2.4
2017-Nov-25 17:59S 36°50' E 174°47'3 6.3
2017-Nov-25 17:31S 36°49' E 174°50'5 9.4
2017-Nov-25 17:00S 36°44' E 174°51'4 7.8
2017-Nov-25 16:30S 36°41' E 174°54'4 9.0
2017-Nov-25 16:00S 36°38' E 174°57'4 8.6
2017-Nov-25 15:30S 36°33' E 174°58'5 9.1
2017-Nov-25 15:00S 36°29' E 174°59'5 9.3
2017-Nov-25 14:30S 36°24' E 174°59'4 8.5
2017-Nov-25 14:00S 36°20' E 174°58'5 9.1
2017-Nov-25 13:28S 36°15' E 174°57'2012.0
2017-Nov-25 11:47S 36°01' E 175°14'413.1
2017-Nov-25 11:30S 35°59' E 175°18'712.9
2017-Nov-25 11:00S 35°55' E 175°24'  
Track history (hours):
 
Tides and Currents Weather Stations Pressure Air Temp Water Temp Dewpoint Dewpoint Depression Visibility Wind Speed Wind Dir Waves Ship Positions

Astor

Operator: Passat Ship Management Ltd

Last reported at 2017-Dec-01 05:41 UTC. Time now 2017-Dec-13 03:38 UTC.
Position S 38°32' E 148°32'.
Warning: this ship's position is 11 days out of date.

Length 177 m; draft 6.2 m.

Type: Ship. MMSI: 308214000.

Date/timePositionNaut miles runAvg speedWind from/ knotsBaromVisibWave heightAir tempDewpointWater temp
2017-Dec-01 05:41S 38°32' E 148°32'316.2
2017-Dec-01 05:29S 38°30' E 148°35'816.0
2017-Dec-01 05:00S 38°25' E 148°43'815.6
2017-Dec-01 04:30S 38°20' E 148°51'714.9
2017-Dec-01 04:00S 38°16' E 148°59'714.8
2017-Dec-01 03:30S 38°12' E 149°06'914.1
2017-Dec-01 02:51S 38°06' E 149°16'711.0
2017-Dec-01 02:12S 38°02' E 149°23'314.6
2017-Dec-01 01:59S 38°00' E 149°26'266 8.5
2017-Nov-29 18:52S 33°52' E 151°24'510.0
2017-Nov-29 18:23S 33°54' E 151°29'3 8.7
2017-Nov-29 18:00S 33°54' E 151°33'2 3.6
2017-Nov-29 17:29S 33°53' E 151°36'  
2017-Nov-26 07:24S 36°21' E 174°58'411.0
2017-Nov-26 07:00S 36°25' E 174°59'611.2
2017-Nov-26 06:27S 36°31' E 174°59'510.9
2017-Nov-26 06:00S 36°36' E 174°58'710.9
2017-Nov-26 05:21S 36°42' E 174°53'411.5
2017-Nov-26 04:58S 36°45' E 174°50'6 7.8
2017-Nov-26 04:14S 36°50' E 174°46'0 0.0
2017-Nov-25 18:09S 36°50' E 174°46'0 2.4
2017-Nov-25 17:59S 36°50' E 174°47'3 6.3
2017-Nov-25 17:31S 36°49' E 174°50'5 9.4
2017-Nov-25 17:00S 36°44' E 174°51'4 7.8
2017-Nov-25 16:30S 36°41' E 174°54'4 9.0
2017-Nov-25 16:00S 36°38' E 174°57'4 8.6
2017-Nov-25 15:30S 36°33' E 174°58'5 9.1
2017-Nov-25 15:00S 36°29' E 174°59'5 9.3
2017-Nov-25 14:30S 36°24' E 174°59'4 8.5
2017-Nov-25 14:00S 36°20' E 174°58'5 9.1
2017-Nov-25 13:28S 36°15' E 174°57'2012.0
2017-Nov-25 11:47S 36°01' E 175°14'413.1
2017-Nov-25 11:30S 35°59' E 175°18'712.9
2017-Nov-25 11:00S 35°55' E 175°24'  

Dump ship's entire track history